createdAt,value
2019-05-18T00:01:53.352Z,10.45
2019-05-18T00:04:23.204Z,11.21
2019-05-18T00:06:53.183Z,11.29
2019-05-18T00:09:29.907Z,11.22
2019-05-18T00:12:02.765Z,11.26
2019-05-18T00:14:41.880Z,11.24
2019-05-18T00:17:24.404Z,11.18
2019-05-18T00:19:45.102Z,11.22
2019-05-18T00:22:18.188Z,11.21
2019-05-18T00:24:50.639Z,11.19
2019-05-18T00:27:28.003Z,10.42
2019-05-18T00:30:04.077Z,11.25
2019-05-18T00:32:29.457Z,11.23
2019-05-18T00:35:02.407Z,11.28
2019-05-18T00:37:31.874Z,11.32
2019-05-18T00:40:01.549Z,11.31
2019-05-18T00:42:34.714Z,11.30
2019-05-18T00:45:07.711Z,11.33
2019-05-18T00:47:41.720Z,11.33
2019-05-18T00:50:09.643Z,11.33
2019-05-18T00:52:39.478Z,11.36
2019-05-18T00:55:09.843Z,11.33
2019-05-18T00:57:40.265Z,11.36
2019-05-18T01:00:10.876Z,11.36
2019-05-18T01:02:41.189Z,11.33
2019-05-18T01:05:11.481Z,11.33
2019-05-18T01:07:41.628Z,11.35
2019-05-18T01:10:13.459Z,11.38
2019-05-18T01:12:43.491Z,11.35
2019-05-18T01:15:15.739Z,11.37
2019-05-18T01:17:56.874Z,11.40
2019-05-18T01:20:19.548Z,11.41
2019-05-18T01:22:49.743Z,11.43
2019-05-18T01:25:21.237Z,11.45
2019-05-18T01:27:52.142Z,11.45
2019-05-18T01:30:23.009Z,11.44
2019-05-18T01:32:52.876Z,11.49
2019-05-18T01:35:23.048Z,11.45
2019-05-18T01:37:54.565Z,11.48
2019-05-18T01:40:27.058Z,11.41
2019-05-18T01:42:57.656Z,11.43
2019-05-18T01:45:27.859Z,11.42
2019-05-18T01:48:12.300Z,11.41
2019-05-18T01:50:31.594Z,11.40
2019-05-18T01:53:18.995Z,11.39
2019-05-18T01:55:41.602Z,11.43
2019-05-18T01:58:18.851Z,11.39
2019-05-18T02:00:51.637Z,11.40
2019-05-18T02:03:29.577Z,11.41
2019-05-18T02:06:02.811Z,11.41
2019-05-18T02:08:39.200Z,11.45
2019-05-18T02:11:12.479Z,11.40
2019-05-18T02:13:46.614Z,11.41
2019-05-18T02:16:19.472Z,11.43
2019-05-18T02:18:49.640Z,11.40
2019-05-18T02:21:19.814Z,11.43
2019-05-18T02:23:53.141Z,11.45
2019-05-18T02:26:27.677Z,11.45
2019-05-18T02:28:58.092Z,11.48
2019-05-18T02:31:28.399Z,11.47
2019-05-18T02:34:01.133Z,11.52
2019-05-18T02:36:31.212Z,11.38
2019-05-18T02:39:01.734Z,11.56
2019-05-18T02:41:31.793Z,11.54
2019-05-18T02:44:01.668Z,11.58
2019-05-18T02:46:31.323Z,11.60
2019-05-18T02:49:01.831Z,11.58
2019-05-18T02:51:31.710Z,11.57
2019-05-18T02:54:01.594Z,11.56
2019-05-18T02:56:31.944Z,11.55
2019-05-18T02:59:05.407Z,11.56
2019-05-18T03:01:35.862Z,11.54
2019-05-18T03:04:06.040Z,10.77
2019-05-18T03:06:36.860Z,11.54
2019-05-18T03:09:09.465Z,11.54
2019-05-18T03:11:39.644Z,11.55
2019-05-18T03:14:15.236Z,11.54
2019-05-18T03:17:00.680Z,11.54
2019-05-18T03:19:38.440Z,11.54
2019-05-18T03:22:09.512Z,11.52
2019-05-18T03:24:41.133Z,10.69
2019-05-18T03:27:17.304Z,11.50
2019-05-18T03:29:51.125Z,11.48
2019-05-18T03:32:22.355Z,11.49
2019-05-18T03:35:01.997Z,11.48
2019-05-18T03:37:37.314Z,11.48
2019-05-18T03:40:11.672Z,11.48
2019-05-18T03:42:46.680Z,11.49
2019-05-18T03:45:16.826Z,11.52
2019-05-18T03:47:47.060Z,11.52
2019-05-18T03:50:19.119Z,11.56
2019-05-18T03:52:50.955Z,11.58
2019-05-18T03:55:21.130Z,11.61
2019-05-18T03:57:50.968Z,11.60
2019-05-18T04:00:23.081Z,11.65
2019-05-18T04:02:53.497Z,11.68
2019-05-18T04:05:23.647Z,11.66
2019-05-18T04:07:54.423Z,11.65
2019-05-18T04:10:26.483Z,11.68
2019-05-18T04:12:57.022Z,11.69
2019-05-18T04:15:27.157Z,11.71
2019-05-18T04:17:57.003Z,11.75
2019-05-18T04:20:44.059Z,11.67
2019-05-18T04:23:26.151Z,11.79
2019-05-18T04:25:58.071Z,11.83
2019-05-18T04:28:27.758Z,11.86
2019-05-18T04:30:57.289Z,11.87
2019-05-18T04:33:27.054Z,11.90
2019-05-18T04:35:56.700Z,11.94
2019-05-18T04:38:27.209Z,11.98
2019-05-18T04:40:57.009Z,11.97
2019-05-18T04:43:26.486Z,12.00
2019-05-18T04:45:56.202Z,12.03
2019-05-18T04:48:28.518Z,12.05
2019-05-18T04:50:58.753Z,12.09
2019-05-18T04:53:28.568Z,12.09
2019-05-18T04:55:58.607Z,12.12
2019-05-18T04:58:28.447Z,12.16
2019-05-18T05:00:58.406Z,12.21
2019-05-18T05:03:28.468Z,12.21
2019-05-18T05:05:58.240Z,12.28
2019-05-18T05:08:37.316Z,12.32
2019-05-18T05:11:07.319Z,12.43
2019-05-18T05:13:45.776Z,12.50
2019-05-18T05:16:15.558Z,12.49
2019-05-18T05:18:44.961Z,12.51
2019-05-18T05:21:15.979Z,12.53
2019-05-18T05:23:48.175Z,12.52
2019-05-18T05:26:21.494Z,12.53
2019-05-18T05:28:52.268Z,12.65
2019-05-18T05:31:22.695Z,12.80
2019-05-18T05:33:52.675Z,12.91
2019-05-18T05:36:26.229Z,12.93
2019-05-18T05:38:58.203Z,13.02
2019-05-18T05:41:35.527Z,13.09
2019-05-18T05:44:09.651Z,13.13
2019-05-18T05:46:46.103Z,13.12
2019-05-18T05:49:15.265Z,13.17
2019-05-18T05:51:48.620Z,13.20
2019-05-18T05:54:16.005Z,13.27
2019-05-18T05:56:46.800Z,13.29
2019-05-18T05:59:16.031Z,13.35
2019-05-18T06:01:52.503Z,13.41
2019-05-18T06:04:26.649Z,13.57
2019-05-18T06:07:05.688Z,13.83
2019-05-18T06:09:35.688Z,13.91
2019-05-18T06:12:05.504Z,13.99
2019-05-18T06:14:35.177Z,14.13
2019-05-18T06:17:08.298Z,14.13
2019-05-18T06:19:36.669Z,14.14
2019-05-18T06:22:19.753Z,14.24
2019-05-18T06:24:49.240Z,14.34
2019-05-18T06:27:29.153Z,14.42
2019-05-18T06:30:23.128Z,14.48
2019-05-18T19:08:46.632Z,14.62
2019-05-18T19:11:19.839Z,14.62
2019-05-18T19:13:52.823Z,17.76
2019-05-18T19:16:27.308Z,17.70
2019-05-18T19:19:00.642Z,17.65
2019-05-18T19:21:39.083Z,17.63
2019-05-18T19:24:15.797Z,17.59
2019-05-18T19:29:46.511Z,17.42
2019-05-18T19:33:17.595Z,17.39
2019-05-18T19:35:51.727Z,17.29
2019-05-18T19:38:45.172Z,17.13
2019-05-18T19:41:15.930Z,17.06
2019-05-18T19:43:53.355Z,16.92
2019-05-18T19:46:26.801Z,16.86
2019-05-18T19:48:57.040Z,16.69
2019-05-18T19:51:28.496Z,16.60
2019-05-18T19:53:59.832Z,16.47
2019-05-18T19:56:38.965Z,16.37
2019-05-18T20:02:01.437Z,16.22
2019-05-18T20:04:35.124Z,16.16
2019-05-18T20:07:16.183Z,16.13
2019-05-18T20:09:57.257Z,16.06
2019-05-18T20:12:31.645Z,15.89
2019-05-18T20:15:09.188Z,15.90
2019-05-18T20:17:55.085Z,15.80
2019-05-18T20:20:28.020Z,15.87
2019-05-18T20:23:08.536Z,15.77
2019-05-18T20:25:43.778Z,15.75
2019-05-18T20:28:23.320Z,15.71
2019-05-18T20:30:56.388Z,15.70
2019-05-18T20:33:32.223Z,15.67
2019-05-18T20:36:06.532Z,15.61
2019-05-18T20:38:36.943Z,15.59
2019-05-18T20:41:10.213Z,15.57
2019-05-18T20:43:42.241Z,15.55
2019-05-18T20:46:14.409Z,15.55
2019-05-18T20:48:47.598Z,15.52
2019-05-18T20:51:25.732Z,15.46
2019-05-18T20:53:58.987Z,15.42
2019-05-18T21:00:01.988Z,15.33
2019-05-18T21:05:44.052Z,15.28
2019-05-18T21:08:14.360Z,15.20
2019-05-18T21:11:06.887Z,15.23
2019-05-18T21:13:35.346Z,15.17
2019-05-18T22:09:36.888Z,14.46
2019-05-18T22:12:06.353Z,14.43
2019-05-18T22:14:42.481Z,14.39
2019-05-18T22:17:20.897Z,14.31
2019-05-18T22:19:58.561Z,14.34
2019-05-18T22:22:49.825Z,14.33
2019-05-18T22:25:29.697Z,14.30
2019-05-18T22:28:02.991Z,14.28
2019-05-18T22:30:53.234Z,14.26
2019-05-18T22:33:37.132Z,14.23
2019-05-18T22:36:17.463Z,14.21
2019-05-18T22:39:05.298Z,14.25
2019-05-18T22:41:43.586Z,14.24
2019-05-18T22:52:43.448Z,14.02
2019-05-18T23:12:55.063Z,13.69
